Nicholasville, Kentucky
Current Conditions -  °F | °C
As of 9:54 AM on Thursday 23 Oct 2014 (Local Time) from KLEX Reporting Station
Scattered Clouds Scattered Clouds  
Wind Chill: 52°   Ceiling: Unl
Heat Index: 52°   Visibility: 10mi
Dew Point: 39°   Wind: 7mph
Humidity: 61%   Direction: 110°ESE
Pressure: 30.25"   Gusts: NA
Location:  37.89°N, 84.57°W
Report Text: KLEX 231354Z 11006KT 10SM SCT025 11/04 A3025 RMK AO2 SLP243 T01110039
Loading
Personal Weather Stations






























Interactive Weather Map New forecast layout! Learn more

10-Day Weather Forecast

Advertisements
Track Severe Weather on mobile